Port Hope, MI

11:23 AM EDT on May 28, 2017 (GMT -0400)
Eastwatch-by-the-Sea | | Change Station

Elev 565 ft 43.95 °N, 82.72 °W | Updated 4 seconds ago

Partly Cloudy
Partly Cloudy
61.9 °F
Feels Like 61.9 °F
N
5.1
Wind Variable Wind from SE
Gusts 7.4 mph

Today
High -- | Low -- °F
--% Chance of Precip.
Yesterday
High -- | Low -- °F
Precip. -- in
Pressure 29.80 in
Visibility 10.0 miles
Clouds Scattered Clouds 8500 ft
Dew Point 45 °F
Humidity 54%
Rainfall 0.00 in
Snow Depth Not available.
5:53 AM 9:03 PM
Waxing Crescent, 12% visible
METAR KBAX 281517Z AUTO 17010G14KT 10SM SCT085 21/14 A2980 RMK AO2 T02080136
Pressure 29.80 in
Visibility 10.0 miles
Clouds Scattered Clouds 8500 ft
Dew Point 45 °F
Humidity 54%
Rainfall 0.00 in
Snow Depth Not available.
5:53 AM 9:03 PM
Waxing Crescent, 12% visible
METAR KBAX 281517Z AUTO 17010G14KT 10SM SCT085 21/14 A2980 RMK AO2 T02080136

Get Severe Weather Alerts

Thanks for signing up!

Be on the lookout for a verification email in your inbox.

You'll start receiving the daily forecast at 6 AM.

×

10-Day Weather Forecast

Almanac

Astronomy

May. 28, 2017 Rise Set
Actual Time
Civil Twilight
Nautical Twilight
Astronomical Twilight
Moon
Length of Visible Light
Length of Day
Tomorrow will be .
, % of the Moon is Illuminated

Today's Extremes

State Highs State Lows

Community

WunderPhotos

Category 6

Welcome to Category 6. This is the collective home for Weather Underground's featured writeups by Dr. Jeff Masters (right), Bob Henson (left), Chris Burt, and other regular contributors.

Nearby

Air Quality

  Air Quality AQ Index Pollutant
Not available.

Snow Depth

Station Depth Elevation

Earthquake Activity

City Distance Mag. Time & Date
Minimum magnitude displayed is 2.5.

Coastal Water Temperatures

Place Temperature

Stations

Nearby Weather Stations

Station Location Temp. Windchill Dew Point Humidity Wind Precip. Elev Updated Type
                   

Watches & Warnings

There are currently no watches in effect.